createdAt,value
2019-03-29T00:00:16.021Z,10.23
2019-03-29T00:02:44.603Z,9.80
2019-03-29T00:05:13.091Z,8.90
2019-03-29T00:07:41.972Z,9.93
2019-03-29T00:10:10.887Z,10.50
2019-03-29T00:12:39.438Z,10.23
2019-03-29T00:15:08.635Z,10.50
2019-03-29T00:17:37.095Z,10.90
2019-03-29T00:20:07.608Z,10.67
2019-03-29T00:22:36.140Z,10.90
2019-03-29T00:25:05.045Z,10.67
2019-03-29T00:27:33.609Z,13.07
2019-03-29T00:30:02.223Z,11.18
2019-03-29T00:32:31.257Z,11.80
2019-03-29T00:35:01.090Z,11.47
2019-03-29T00:37:29.647Z,10.97
2019-03-29T00:39:58.106Z,11.75
2019-03-29T00:42:26.591Z,11.33
2019-03-29T00:44:55.063Z,11.40
2019-03-29T00:47:23.519Z,12.15
2019-03-29T00:49:52.089Z,12.83
2019-03-29T00:52:20.623Z,11.73
2019-03-29T00:54:49.112Z,12.37
2019-03-29T00:57:17.572Z,11.90
2019-03-29T00:59:46.139Z,11.83
2019-03-29T01:02:14.608Z,12.23
2019-03-29T01:04:43.092Z,12.30
2019-03-29T01:07:11.879Z,12.40
2019-03-29T01:09:40.395Z,13.75
2019-03-29T01:12:08.863Z,13.30
2019-03-29T01:14:37.398Z,12.53
2019-03-29T01:17:05.901Z,12.33
2019-03-29T01:19:34.433Z,12.98
2019-03-29T01:22:02.919Z,13.10
2019-03-29T01:24:31.399Z,12.95
2019-03-29T01:26:59.888Z,13.20
2019-03-29T01:29:28.348Z,13.35
2019-03-29T01:31:56.820Z,13.35
2019-03-29T01:34:25.369Z,11.78
2019-03-29T01:36:53.900Z,11.43
2019-03-29T01:39:22.694Z,11.22
2019-03-29T01:41:51.158Z,11.08
2019-03-29T01:44:19.730Z,11.13
2019-03-29T01:46:48.287Z,10.35
2019-03-29T01:49:17.047Z,11.18
2019-03-29T01:51:45.611Z,10.53
2019-03-29T01:54:14.143Z,11.63
2019-03-29T01:56:42.708Z,12.00
2019-03-29T01:59:11.504Z,11.95
2019-03-29T02:01:39.984Z,12.80
2019-03-29T02:04:08.478Z,11.27
2019-03-29T02:06:37.004Z,13.63
2019-03-29T02:09:06.220Z,13.27
2019-03-29T02:11:34.857Z,14.63
2019-03-29T02:14:03.353Z,14.10
2019-03-29T02:16:31.882Z,13.83
2019-03-29T02:19:00.443Z,15.80
2019-03-29T02:21:30.585Z,14.60
2019-03-29T02:23:59.050Z,15.43
2019-03-29T02:26:27.619Z,16.50
2019-03-29T02:28:56.415Z,14.83
2019-03-29T02:31:26.080Z,17.10
2019-03-29T02:33:54.949Z,16.48
2019-03-29T02:36:23.492Z,16.40
2019-03-29T02:38:55.690Z,19.80
2019-03-29T02:41:22.236Z,20.52
2019-03-29T02:43:50.724Z,17.97
2019-03-29T02:46:19.261Z,18.73
2019-03-29T02:48:47.760Z,19.73
2019-03-29T02:51:16.238Z,21.05
2019-03-29T02:53:44.696Z,18.27
2019-03-29T02:56:13.192Z,19.27
2019-03-29T02:58:41.744Z,20.13
2019-03-29T03:01:10.299Z,18.98
2019-03-29T03:03:38.800Z,19.90
2019-03-29T03:06:07.359Z,22.73
2019-03-29T03:08:35.897Z,20.60
2019-03-29T03:11:04.522Z,22.87
2019-03-29T03:13:32.989Z,22.45
2019-03-29T03:16:01.616Z,22.40
2019-03-29T03:18:30.174Z,23.37
2019-03-29T03:20:58.986Z,23.35
2019-03-29T03:23:28.412Z,22.50
2019-03-29T03:25:57.031Z,21.02
2019-03-29T03:28:25.594Z,23.73
2019-03-29T03:30:54.066Z,21.30
2019-03-29T03:33:22.759Z,21.87
2019-03-29T03:35:51.372Z,23.60
2019-03-29T03:38:20.108Z,22.32
2019-03-29T03:40:48.659Z,24.30
2019-03-29T03:43:17.196Z,22.40
2019-03-29T03:45:45.751Z,23.23
2019-03-29T03:48:14.227Z,26.93
2019-03-29T03:50:43.228Z,25.30
2019-03-29T03:53:11.957Z,24.75
2019-03-29T03:55:41.312Z,26.70
2019-03-29T03:58:10.715Z,27.17
2019-03-29T04:00:53.996Z,25.60
2019-03-29T04:03:22.803Z,27.43
2019-03-29T04:05:51.335Z,28.17
2019-03-29T04:08:20.274Z,28.20
2019-03-29T04:10:48.877Z,26.33
2019-03-29T04:13:17.416Z,28.67
2019-03-29T04:15:46.100Z,28.03
2019-03-29T04:18:16.016Z,26.90
2019-03-29T04:20:44.826Z,27.73
2019-03-29T04:23:13.533Z,29.15
2019-03-29T04:25:42.164Z,30.57
2019-03-29T04:28:10.630Z,29.02
2019-03-29T04:30:39.232Z,29.72
2019-03-29T04:33:11.114Z,30.85
2019-03-29T04:35:37.999Z,30.20
2019-03-29T04:38:06.698Z,29.35
2019-03-29T04:40:35.283Z,29.48
2019-03-29T04:43:03.862Z,30.67
2019-03-29T04:45:32.470Z,29.33
2019-03-29T04:48:00.935Z,28.87
2019-03-29T04:50:29.863Z,30.03
2019-03-29T04:52:58.404Z,28.35
2019-03-29T04:55:27.232Z,31.40
2019-03-29T04:57:55.688Z,30.40
2019-03-29T05:00:24.250Z,33.27
2019-03-29T05:02:53.041Z,31.65
2019-03-29T05:05:21.514Z,32.33
2019-03-29T05:07:50.075Z,32.88
2019-03-29T05:10:21.576Z,33.07
2019-03-29T05:12:48.987Z,35.13
2019-03-29T05:15:17.586Z,34.80
2019-03-29T05:17:46.062Z,34.75
2019-03-29T05:20:14.594Z,35.75
2019-03-29T05:22:43.200Z,37.13
2019-03-29T05:25:11.831Z,34.30
2019-03-29T05:27:40.361Z,39.57
2019-03-29T05:30:09.019Z,38.02
2019-03-29T05:32:37.469Z,37.30
2019-03-29T05:35:06.793Z,36.83
2019-03-29T05:37:35.251Z,35.33
2019-03-29T05:40:04.850Z,34.80
2019-03-29T05:42:33.402Z,36.60
2019-03-29T05:45:01.937Z,34.15
2019-03-29T05:47:30.540Z,34.60
2019-03-29T05:49:59.205Z,33.30
2019-03-29T05:52:28.041Z,31.67
2019-03-29T05:54:56.497Z,31.27
2019-03-29T05:57:24.976Z,30.27
2019-03-29T05:59:53.540Z,33.60
2019-03-29T06:02:22.212Z,30.90
2019-03-29T06:04:50.692Z,29.27
2019-03-29T06:07:19.151Z,31.02
2019-03-29T06:09:47.639Z,31.27
2019-03-29T06:12:16.171Z,30.37
2019-03-29T06:14:44.744Z,27.70
2019-03-29T06:17:13.211Z,27.40
2019-03-29T06:19:41.654Z,29.03
2019-03-29T06:22:10.219Z,26.68
2019-03-29T06:24:38.751Z,28.52
2019-03-29T06:27:07.247Z,25.85
2019-03-29T06:29:35.719Z,26.57
2019-03-29T06:32:04.250Z,27.42
2019-03-29T06:34:32.737Z,24.20
2019-03-29T06:37:01.908Z,27.93
2019-03-29T06:39:30.844Z,24.60
2019-03-29T06:41:59.378Z,25.30
2019-03-29T06:44:27.863Z,25.65
2019-03-29T06:46:56.334Z,24.87
2019-03-29T06:49:24.823Z,23.00
2019-03-29T06:51:53.284Z,25.10
2019-03-29T06:54:21.772Z,22.30
2019-03-29T06:56:50.231Z,23.42
2019-03-29T06:59:18.708Z,23.97
2019-03-29T07:01:47.255Z,23.12
2019-03-29T07:04:15.731Z,22.67
2019-03-29T07:06:44.551Z,21.10
2019-03-29T07:09:13.093Z,21.07
2019-03-29T07:11:41.715Z,20.23
2019-03-29T07:14:10.203Z,20.60
2019-03-29T07:16:38.671Z,20.40
2019-03-29T07:19:07.244Z,22.77
2019-03-29T07:21:35.768Z,20.77
2019-03-29T07:24:04.328Z,20.00
2019-03-29T07:26:32.868Z,21.45
2019-03-29T07:29:01.343Z,19.27
2019-03-29T07:31:29.904Z,21.40
2019-03-29T07:33:59.398Z,21.17
2019-03-29T07:36:28.032Z,20.40
2019-03-29T07:38:56.613Z,20.10
2019-03-29T07:41:31.971Z,19.45
2019-03-29T07:43:56.877Z,20.30
2019-03-29T07:46:25.431Z,19.80
2019-03-29T07:48:53.973Z,19.00
2019-03-29T07:51:22.455Z,20.27
2019-03-29T07:53:51.023Z,19.05
2019-03-29T07:56:19.555Z,20.33
2019-03-29T07:58:50.948Z,18.55
2019-03-29T08:01:19.588Z,18.20
2019-03-29T08:03:51.192Z,18.97
2019-03-29T08:06:18.414Z,19.17
2019-03-29T08:08:46.938Z,18.42
2019-03-29T08:11:25.462Z,19.17
2019-03-29T08:13:45.623Z,18.37
2019-03-29T08:16:14.112Z,18.95
2019-03-29T08:18:42.612Z,17.97
2019-03-29T08:21:11.099Z,18.00
2019-03-29T08:23:39.566Z,18.17
2019-03-29T08:26:08.182Z,18.48
2019-03-29T08:28:36.745Z,18.37
2019-03-29T08:31:05.512Z,18.65
2019-03-29T08:33:34.094Z,18.10
2019-03-29T08:36:02.564Z,17.47
2019-03-29T08:38:31.130Z,17.27
2019-03-29T08:40:59.698Z,17.80
2019-03-29T08:43:28.187Z,17.20
2019-03-29T08:45:57.720Z,17.75
2019-03-29T08:48:26.662Z,17.77
2019-03-29T08:50:55.295Z,17.37
2019-03-29T08:53:27.312Z,18.40
2019-03-29T08:55:54.372Z,18.90
2019-03-29T08:58:22.835Z,16.30
2019-03-29T09:00:51.411Z,17.13
2019-03-29T09:03:19.884Z,16.70
2019-03-29T09:05:48.352Z,17.10
2019-03-29T09:08:17.054Z,18.37
2019-03-29T09:10:45.597Z,17.07
2019-03-29T09:13:14.347Z,18.00
2019-03-29T09:15:42.812Z,17.20
2019-03-29T09:18:11.457Z,16.17
2019-03-29T09:20:40.432Z,18.20
2019-03-29T09:23:10.540Z,15.47
2019-03-29T09:25:40.950Z,16.70
2019-03-29T09:28:09.484Z,17.20
2019-03-29T09:30:37.982Z,16.52
2019-03-29T09:33:06.585Z,16.97
2019-03-29T09:35:35.212Z,16.32
2019-03-29T09:38:03.840Z,16.57
2019-03-29T09:40:32.454Z,18.47
2019-03-29T09:43:08.595Z,15.20
2019-03-29T09:45:31.098Z,15.60
2019-03-29T09:47:59.894Z,15.53
2019-03-29T09:50:28.631Z,15.58
2019-03-29T09:53:00.902Z,14.87
2019-03-29T09:55:27.661Z,14.13
2019-03-29T09:57:56.231Z,12.63
2019-03-29T10:00:24.839Z,12.50
2019-03-29T10:02:53.553Z,12.60
2019-03-29T10:05:22.261Z,12.20
2019-03-29T10:07:50.830Z,13.13
2019-03-29T10:10:19.296Z,13.30
2019-03-29T10:12:47.815Z,12.20
2019-03-29T10:15:16.732Z,11.25
2019-03-29T10:17:45.663Z,10.90
2019-03-29T10:20:14.529Z,10.60
2019-03-29T10:22:43.168Z,10.37
2019-03-29T10:25:19.098Z,9.80
2019-03-29T10:27:42.174Z,9.80
2019-03-29T10:30:11.673Z,9.97
2019-03-29T10:32:40.144Z,10.13
2019-03-29T10:35:08.807Z,9.60
2019-03-29T10:37:37.363Z,10.20
2019-03-29T10:40:06.858Z,9.83
2019-03-29T10:42:35.591Z,10.50
2019-03-29T10:45:05.340Z,8.95
2019-03-29T10:47:43.071Z,8.60
2019-03-29T10:50:06.010Z,8.00
2019-03-29T10:52:34.546Z,7.20
2019-03-29T10:55:03.164Z,8.70
2019-03-29T10:57:31.711Z,8.78
2019-03-29T11:00:01.115Z,8.73
2019-03-29T11:02:29.713Z,8.47
2019-03-29T11:04:58.192Z,7.87
2019-03-29T11:07:26.651Z,8.60
2019-03-29T11:09:55.145Z,8.20
2019-03-29T11:12:23.652Z,7.60
2019-03-29T11:14:52.111Z,7.35
2019-03-29T11:17:20.602Z,7.10
2019-03-29T11:19:49.147Z,7.50
2019-03-29T11:22:17.732Z,6.87
2019-03-29T11:24:46.247Z,8.18
2019-03-29T11:27:14.810Z,7.85
2019-03-29T11:29:43.352Z,7.20
2019-03-29T11:32:12.182Z,7.43
2019-03-29T11:34:40.719Z,8.10
2019-03-29T11:37:09.365Z,7.60
2019-03-29T11:39:38.140Z,7.70
2019-03-29T11:42:06.691Z,8.87
2019-03-29T11:44:35.244Z,7.62
2019-03-29T11:47:04.915Z,7.90
2019-03-29T11:49:33.370Z,7.27
2019-03-29T11:52:01.902Z,7.47
2019-03-29T11:54:30.619Z,6.40
2019-03-29T11:56:59.544Z,7.80
2019-03-29T11:59:28.030Z,7.20
2019-03-29T12:01:56.502Z,7.70
2019-03-29T12:04:25.062Z,7.90
2019-03-29T12:06:53.591Z,7.75
2019-03-29T12:09:22.082Z,8.10
2019-03-29T12:11:50.612Z,7.30
2019-03-29T12:14:19.124Z,7.25
2019-03-29T12:16:47.900Z,8.07
2019-03-29T12:19:16.563Z,7.60
2019-03-29T12:21:45.167Z,8.33
2019-03-29T12:24:13.668Z,8.10
2019-03-29T12:26:42.191Z,7.70
2019-03-29T12:29:10.879Z,8.45
2019-03-29T12:31:39.383Z,8.13
2019-03-29T12:34:07.984Z,7.50
2019-03-29T12:36:36.544Z,9.10
2019-03-29T12:39:07.353Z,8.98
2019-03-29T12:41:36.062Z,8.53
2019-03-29T12:44:04.875Z,8.50
2019-03-29T12:46:33.443Z,8.13
2019-03-29T12:49:01.912Z,8.90
2019-03-29T12:51:30.404Z,8.60
2019-03-29T12:53:58.949Z,9.13
2019-03-29T12:56:27.422Z,7.80
2019-03-29T12:58:55.979Z,9.28
2019-03-29T13:01:38.446Z,8.70
2019-03-29T13:03:54.851Z,9.03
2019-03-29T13:06:23.332Z,8.48
2019-03-29T13:08:51.864Z,8.70
2019-03-29T13:11:20.339Z,8.30
2019-03-29T13:13:48.905Z,8.10
2019-03-29T13:16:17.689Z,8.13
2019-03-29T13:18:46.415Z,8.43
2019-03-29T13:21:14.939Z,8.40
2019-03-29T13:23:43.542Z,8.87
2019-03-29T13:26:12.157Z,9.27
2019-03-29T13:28:41.018Z,9.00
2019-03-29T13:31:09.564Z,8.97
2019-03-29T13:33:40.589Z,8.10
2019-03-29T13:36:09.269Z,9.63
2019-03-29T13:38:38.168Z,9.33
2019-03-29T13:41:07.250Z,9.43
2019-03-29T13:43:35.892Z,9.93
2019-03-29T13:46:04.780Z,8.93
2019-03-29T13:48:33.328Z,9.27
2019-03-29T13:51:01.831Z,9.63
2019-03-29T13:53:30.406Z,10.45
2019-03-29T13:55:58.971Z,9.50
2019-03-29T13:58:27.436Z,7.63
2019-03-29T14:00:56.217Z,9.13
2019-03-29T14:03:25.036Z,9.23
2019-03-29T14:05:53.570Z,9.93
2019-03-29T14:08:22.195Z,10.10
2019-03-29T14:10:50.736Z,11.90
2019-03-29T14:13:19.834Z,11.50
2019-03-29T14:15:48.529Z,10.50
2019-03-29T14:18:17.157Z,10.70
2019-03-29T14:20:45.618Z,11.50
2019-03-29T14:23:14.193Z,11.50
2019-03-29T14:25:42.785Z,11.83
2019-03-29T14:28:11.275Z,11.68
2019-03-29T14:30:39.817Z,11.90
2019-03-29T14:33:08.428Z,11.75
2019-03-29T14:35:36.907Z,11.50
2019-03-29T14:38:05.517Z,11.10
2019-03-29T14:40:34.072Z,11.57
2019-03-29T14:43:02.539Z,11.63
2019-03-29T14:45:31.312Z,11.30
2019-03-29T14:47:59.837Z,10.70
2019-03-29T14:50:28.412Z,10.93
2019-03-29T14:52:57.030Z,11.60
2019-03-29T14:55:25.602Z,11.40
2019-03-29T14:57:54.135Z,11.50
2019-03-29T15:00:37.348Z,11.13
2019-03-29T15:03:06.015Z,11.90
2019-03-29T15:05:34.523Z,11.50
2019-03-29T15:08:03.166Z,12.13
2019-03-29T15:10:32.136Z,12.25
2019-03-29T15:13:00.630Z,11.50
2019-03-29T15:15:29.235Z,12.33
2019-03-29T15:17:57.723Z,12.00
2019-03-29T15:20:26.190Z,11.60
2019-03-29T15:22:55.053Z,12.13
2019-03-29T15:25:23.609Z,11.57
2019-03-29T15:27:52.336Z,12.20
2019-03-29T15:30:21.267Z,11.70
2019-03-29T15:32:49.788Z,12.45
2019-03-29T15:35:20.814Z,11.80
2019-03-29T15:37:48.805Z,11.83
2019-03-29T15:40:17.725Z,11.40
2019-03-29T15:42:46.199Z,11.43
2019-03-29T15:45:20.815Z,11.00
2019-03-29T15:47:45.018Z,11.70
2019-03-29T15:50:13.754Z,11.00
2019-03-29T15:52:42.452Z,11.60
2019-03-29T15:55:11.548Z,11.03
2019-03-29T15:57:40.168Z,11.43
2019-03-29T16:00:10.657Z,12.60
2019-03-29T16:02:39.136Z,11.40
2019-03-29T16:05:07.769Z,11.60
2019-03-29T16:07:36.234Z,11.43
2019-03-29T16:10:05.462Z,11.00
2019-03-29T16:12:33.999Z,11.03
2019-03-29T16:15:02.628Z,11.55
2019-03-29T16:17:31.191Z,10.72
2019-03-29T16:19:59.724Z,11.40
2019-03-29T16:22:28.216Z,10.78
2019-03-29T16:24:56.727Z,11.67
2019-03-29T16:27:25.607Z,12.20
2019-03-29T16:29:54.080Z,11.35
2019-03-29T16:32:23.380Z,11.48
2019-03-29T16:34:51.854Z,11.00
2019-03-29T16:37:20.416Z,11.33
2019-03-29T16:39:48.910Z,11.50
2019-03-29T16:42:17.450Z,11.43
2019-03-29T16:44:45.944Z,11.20
2019-03-29T16:47:14.405Z,11.28
2019-03-29T16:49:42.928Z,11.27
2019-03-29T16:52:11.508Z,11.55
2019-03-29T16:54:40.005Z,11.27
2019-03-29T16:57:08.731Z,10.70
2019-03-29T16:59:37.218Z,10.75
2019-03-29T17:02:05.675Z,10.80
2019-03-29T17:04:34.335Z,12.63
2019-03-29T17:07:02.862Z,11.30
2019-03-29T17:09:31.391Z,11.00
2019-03-29T17:12:00.385Z,12.40
2019-03-29T17:14:28.851Z,11.20
2019-03-29T17:16:57.596Z,11.60
2019-03-29T17:19:26.213Z,11.30
2019-03-29T17:21:54.763Z,12.47
2019-03-29T17:24:23.592Z,10.43
2019-03-29T17:26:52.411Z,11.08
2019-03-29T17:29:20.890Z,11.05
2019-03-29T17:31:49.447Z,11.20
2019-03-29T17:34:18.361Z,11.35
2019-03-29T17:36:47.003Z,11.50
2019-03-29T17:39:15.470Z,12.25
2019-03-29T17:41:44.003Z,11.83
2019-03-29T17:44:12.636Z,12.67
2019-03-29T17:46:41.098Z,11.83
2019-03-29T17:49:09.704Z,11.83
2019-03-29T17:51:38.174Z,12.95
2019-03-29T17:54:06.731Z,11.30
2019-03-29T17:56:35.207Z,12.20
2019-03-29T17:59:03.706Z,13.13
2019-03-29T18:01:32.252Z,14.50
2019-03-29T18:04:00.743Z,11.80
2019-03-29T18:06:29.367Z,12.75
2019-03-29T18:08:58.257Z,14.65
2019-03-29T18:11:26.808Z,13.55
2019-03-29T18:13:55.346Z,14.97
2019-03-29T18:16:30.669Z,14.23
2019-03-29T18:18:54.178Z,12.93
2019-03-29T18:21:22.735Z,13.87
2019-03-29T18:23:51.194Z,12.85
2019-03-29T18:26:19.728Z,12.73
2019-03-29T18:28:48.199Z,18.42
2019-03-29T18:31:17.111Z,14.73
2019-03-29T18:33:45.649Z,15.35
2019-03-29T18:36:14.540Z,15.18
2019-03-29T18:38:44.635Z,15.03
2019-03-29T18:41:13.179Z,17.00
2019-03-29T18:43:41.652Z,15.70
2019-03-29T18:46:10.317Z,16.45
2019-03-29T18:48:38.845Z,14.70
2019-03-29T18:51:07.380Z,14.53
2019-03-29T18:53:37.520Z,14.20
2019-03-29T18:56:06.249Z,14.07
2019-03-29T18:58:34.813Z,15.75
2019-03-29T19:01:03.514Z,16.55
2019-03-29T19:03:32.153Z,13.30
2019-03-29T19:06:00.758Z,15.27
2019-03-29T19:08:29.373Z,16.25
2019-03-29T19:10:58.354Z,14.58
2019-03-29T19:13:26.828Z,15.17
2019-03-29T19:15:55.324Z,15.80
2019-03-29T19:18:24.249Z,16.50
2019-03-29T19:20:52.812Z,13.50
2019-03-29T19:23:21.345Z,14.98
2019-03-29T19:25:50.085Z,15.27
2019-03-29T19:28:18.618Z,15.00
2019-03-29T19:30:47.115Z,16.42
2019-03-29T19:33:15.572Z,15.23
2019-03-29T19:35:44.061Z,16.60
2019-03-29T19:38:12.519Z,17.77
2019-03-29T19:40:41.267Z,15.77
2019-03-29T19:43:09.735Z,16.37
2019-03-29T19:45:38.291Z,15.63
2019-03-29T19:48:06.932Z,15.70
2019-03-29T19:50:35.463Z,13.57
2019-03-29T19:53:04.024Z,16.50
2019-03-29T19:55:32.584Z,16.43
2019-03-29T19:58:01.201Z,14.77
2019-03-29T20:00:37.425Z,17.77
2019-03-29T20:03:06.327Z,14.28
2019-03-29T20:05:34.987Z,16.48
2019-03-29T20:08:03.603Z,17.70
2019-03-29T20:10:32.167Z,16.50
2019-03-29T20:13:01.406Z,15.93
2019-03-29T20:15:29.966Z,16.60
2019-03-29T20:17:58.512Z,15.73
2019-03-29T20:20:27.155Z,18.77
2019-03-29T20:22:59.194Z,17.87
2019-03-29T20:25:27.875Z,16.82
2019-03-29T20:27:58.586Z,17.20
2019-03-29T20:30:27.222Z,18.17
2019-03-29T20:32:55.779Z,16.13
2019-03-29T20:35:24.375Z,17.27
2019-03-29T20:37:52.935Z,18.90
2019-03-29T20:40:21.413Z,18.50
2019-03-29T20:42:50.002Z,18.17
2019-03-29T20:46:45.547Z,18.65
2019-03-29T20:49:14.017Z,18.17
2019-03-29T20:51:42.507Z,17.77
2019-03-29T20:54:11.095Z,17.48
2019-03-29T20:56:39.628Z,17.77
2019-03-29T20:59:08.125Z,18.55
2019-03-29T21:01:36.668Z,18.75
2019-03-29T21:04:05.248Z,18.43
2019-03-29T21:06:33.775Z,18.43
2019-03-29T21:09:02.452Z,18.82
2019-03-29T21:11:30.983Z,19.82
2019-03-29T21:14:00.404Z,18.83
2019-03-29T21:16:28.868Z,21.40
2019-03-29T21:18:57.359Z,19.30
2019-03-29T21:21:25.839Z,21.10
2019-03-29T21:23:54.350Z,19.35
2019-03-29T21:26:22.881Z,18.20
2019-03-29T21:28:52.921Z,18.73
2019-03-29T21:31:21.693Z,20.37
2019-03-29T21:33:50.246Z,19.30
2019-03-29T21:36:18.723Z,20.40
2019-03-29T21:38:47.226Z,20.55
2019-03-29T21:41:15.675Z,22.60
2019-03-29T21:43:44.143Z,20.82
2019-03-29T21:46:12.623Z,24.10
2019-03-29T21:48:41.133Z,22.90
2019-03-29T21:51:09.703Z,23.47
2019-03-29T21:53:38.499Z,24.30
2019-03-29T21:56:06.992Z,24.65
2019-03-29T21:58:35.459Z,26.00
2019-03-29T22:01:04.098Z,23.03
2019-03-29T22:03:32.631Z,24.20
2019-03-29T22:06:01.144Z,24.07
2019-03-29T22:08:29.613Z,24.47
2019-03-29T22:10:58.175Z,26.35
2019-03-29T22:13:26.715Z,25.12
2019-03-29T22:15:55.191Z,25.70
2019-03-29T22:18:36.863Z,25.43
2019-03-29T22:20:53.928Z,22.27
2019-03-29T22:23:22.439Z,24.60
2019-03-29T22:25:51.251Z,26.40
2019-03-29T22:28:19.764Z,23.95
2019-03-29T22:30:48.230Z,26.20
2019-03-29T22:33:16.825Z,25.47
2019-03-29T22:35:45.350Z,23.70
2019-03-29T22:38:13.838Z,23.35
2019-03-29T22:40:42.371Z,23.62
2019-03-29T22:43:10.899Z,25.37
2019-03-29T22:45:39.449Z,22.70
2019-03-29T22:48:07.956Z,24.07
2019-03-29T22:50:36.448Z,24.98
2019-03-29T22:53:04.916Z,24.12
2019-03-29T22:55:33.411Z,23.10
2019-03-29T22:58:02.132Z,25.90
2019-03-29T23:00:37.534Z,26.07
2019-03-29T23:03:06.891Z,29.02
2019-03-29T23:05:35.826Z,25.87
2019-03-29T23:08:04.719Z,25.05
2019-03-29T23:10:33.284Z,26.25
2019-03-29T23:13:02.015Z,24.83
2019-03-29T23:15:30.830Z,27.50
2019-03-29T23:17:59.371Z,27.15
2019-03-29T23:20:27.831Z,26.45
2019-03-29T23:22:56.492Z,25.20
2019-03-29T23:25:25.029Z,26.47
2019-03-29T23:27:54.307Z,26.03
2019-03-29T23:30:23.218Z,28.43
2019-03-29T23:32:51.777Z,27.83
2019-03-29T23:35:20.355Z,23.98
2019-03-29T23:37:48.951Z,25.52
2019-03-29T23:40:17.421Z,22.52
2019-03-29T23:42:45.911Z,27.60
2019-03-29T23:45:14.511Z,25.13
2019-03-29T23:47:43.082Z,24.93
2019-03-29T23:50:12.485Z,25.32
2019-03-29T23:52:41.152Z,27.40
2019-03-29T23:55:09.748Z,29.37
2019-03-29T23:57:38.210Z,26.85
